Terminal Aerodrome Forecast
Issued by NWS Greer, SC

Home | Current Version | Previous Version | Text Only | Print | Product List | Glossary On
Versions: 1 2 3 4 5 6 7 8 9 10 11 12 13 14 15 16 17 18 19 20 21 22 23 24 25 26 27 28 29 30 31 32 33 34 35 36 37 38 39 40 41 42 43 44 45 46 47
000
FTUS42 KGSP 192300
TAFAVL
TAF
KAVL 192336Z 2000/2024 11003KT P6SM FEW035
     FM200500 00000KT 4SM BR BKN035
     FM200700 00000KT 2SM BR BKN015
     FM200800 00000KT 1 1/2SM BR BKN003
     FM201200 00000KT 2SM BR BKN010
     FM201300 14004KT P6SM BKN035
     FM201600 15004KT P6SM SCT040=

USA.gov is the U.S. government's official web portal to all federal, state and local government web resources and services.